createdAt,value
2018-01-28T00:02:06.400Z,96910.95
2018-01-28T00:04:34.227Z,96913.84
2018-01-28T00:07:05.880Z,96911.37
2018-01-28T00:09:43.960Z,96915.10
2018-01-28T00:12:11.621Z,96913.47
2018-01-28T00:14:39.783Z,96918.80
2018-01-28T00:17:08.867Z,96909.28
2018-01-28T00:19:37.396Z,96905.36
2018-01-28T00:22:06.192Z,96907.98
2018-01-28T00:24:35.944Z,96918.56
2018-01-28T00:27:04.141Z,96918.93
2018-01-28T00:29:32.163Z,96917.13
2018-01-28T00:31:59.747Z,96920.45
2018-01-28T00:34:27.290Z,96918.31
2018-01-28T00:36:55.158Z,96919.67
2018-01-28T00:39:22.700Z,96919.38
2018-01-28T00:41:50.252Z,96920.61
2018-01-28T00:44:38.129Z,96917.53
2018-01-28T00:47:09.583Z,96922.37
2018-01-28T00:49:41.236Z,96910.24
2018-01-28T00:52:10.124Z,96918.84
2018-01-28T00:54:37.709Z,96925.41
2018-01-28T00:57:05.266Z,96924.34
2018-01-28T00:59:36.072Z,96928.11
2018-01-28T01:02:04.049Z,96931.52
2018-01-28T01:04:32.801Z,96915.98
2018-01-28T01:07:00.342Z,96924.25
2018-01-28T01:09:27.915Z,96914.42
2018-01-28T01:11:55.603Z,96919.08
2018-01-28T01:14:23.155Z,96920.09
2018-01-28T01:16:50.728Z,96920.45
2018-01-28T01:19:18.313Z,96908.22
2018-01-28T01:21:45.877Z,96914.42
2018-01-28T01:24:13.716Z,96913.41
2018-01-28T01:26:41.265Z,96914.27
2018-01-28T01:29:08.817Z,96914.96
2018-01-28T01:31:36.441Z,96898.12
2018-01-28T01:34:04.042Z,96897.23
2018-01-28T01:36:31.710Z,96904.94
2018-01-28T01:38:59.273Z,96903.98
2018-01-28T01:41:26.834Z,96909.11
2018-01-28T01:43:54.429Z,96903.62
2018-01-28T01:46:21.992Z,96899.33
2018-01-28T01:48:49.652Z,96901.47
2018-01-28T01:51:17.291Z,96896.21
2018-01-28T01:53:44.848Z,96901.41
2018-01-28T01:56:12.400Z,96911.70
2018-01-28T01:58:39.959Z,96904.17
2018-01-28T02:01:07.527Z,96908.34
2018-01-28T02:03:39.964Z,96920.77
2018-01-28T02:06:07.721Z,96916.66
2018-01-28T02:08:35.430Z,96925.08
2018-01-28T02:11:02.981Z,96906.55
2018-01-28T02:13:30.530Z,96907.80
2018-01-28T02:15:58.061Z,96904.02
2018-01-28T02:18:25.725Z,96910.48
2018-01-28T02:20:53.313Z,96908.41
2018-01-28T02:23:20.876Z,96910.69
2018-01-28T02:25:48.786Z,96911.27
2018-01-28T02:28:23.756Z,96909.88
2018-01-28T02:30:53.518Z,96907.74
2018-01-28T02:33:35.208Z,96904.92
2018-01-28T02:36:10.908Z,96900.81
2018-01-28T02:38:58.352Z,96911.30
2018-01-28T02:41:31.666Z,96907.31
2018-01-28T02:46:56.292Z,96905.31
2018-01-28T02:49:33.688Z,96912.27
2018-01-28T02:52:15.816Z,96909.02
2018-01-28T02:54:51.277Z,96907.36
2018-01-28T02:57:26.957Z,96901.22
2018-01-28T03:05:31.414Z,96899.53
2018-01-28T03:08:04.771Z,96898.09
2018-01-28T03:10:35.224Z,96898.84
2018-01-28T03:13:16.940Z,96890.44
2018-01-28T03:15:51.791Z,96894.03
2018-01-28T03:18:41.927Z,96908.33
2018-01-28T03:21:27.627Z,96907.59
2018-01-28T03:24:04.661Z,96911.20
2018-01-28T03:26:39.358Z,96907.53
2018-01-28T03:29:22.220Z,96906.46
2018-01-28T03:31:56.403Z,96913.03
2018-01-28T03:34:24.749Z,96911.45
2018-01-28T03:36:52.320Z,96921.52
2018-01-28T03:39:20.014Z,96921.24
2018-01-28T03:41:47.589Z,96918.97
2018-01-28T03:44:15.144Z,96913.55
2018-01-28T03:46:42.872Z,96913.56
2018-01-28T03:49:10.418Z,96923.59
2018-01-28T03:51:37.972Z,96926.43
2018-01-28T03:54:05.692Z,96926.73
2018-01-28T03:56:33.276Z,96930.24
2018-01-28T03:59:00.859Z,96938.56
2018-01-28T04:01:28.545Z,96925.91
2018-01-28T04:03:56.073Z,96927.22
2018-01-28T04:06:23.632Z,96922.09
2018-01-28T04:08:51.212Z,96929.28
2018-01-28T04:11:18.784Z,96935.39
2018-01-28T04:13:46.478Z,96937.33
2018-01-28T04:16:14.058Z,96937.80
2018-01-28T04:18:41.601Z,96938.55
2018-01-28T04:21:09.187Z,96942.34
2018-01-28T04:23:36.750Z,96945.59
2018-01-28T04:26:04.426Z,96935.05
2018-01-28T04:28:31.957Z,96940.71
2018-01-28T04:30:59.619Z,96944.55
2018-01-28T04:33:27.157Z,96931.27
2018-01-28T04:35:54.700Z,96937.81
2018-01-28T04:38:22.240Z,96941.39
2018-01-28T04:40:49.769Z,96951.98
2018-01-28T04:43:17.437Z,96954.95
2018-01-28T04:45:44.984Z,96944.67
2018-01-28T04:48:12.531Z,96941.08
2018-01-28T04:50:40.118Z,96952.09
2018-01-28T04:53:07.633Z,96957.73
2018-01-28T04:55:35.298Z,96966.09
2018-01-28T04:58:02.874Z,96966.14
2018-01-28T05:00:30.553Z,96963.02
2018-01-28T05:02:58.139Z,96967.99
2018-01-28T05:05:25.696Z,96979.47
2018-01-28T05:07:53.298Z,96989.09
2018-01-28T05:10:20.886Z,96988.98
2018-01-28T05:12:48.580Z,96992.80
2018-01-28T05:15:16.097Z,96990.79
2018-01-28T05:17:43.605Z,96983.22
2018-01-28T05:20:11.160Z,96995.31
2018-01-28T05:22:38.725Z,97000.50
2018-01-28T05:25:06.384Z,97006.39
2018-01-28T05:27:33.968Z,96985.42
2018-01-28T05:30:01.556Z,96982.52
2018-01-28T05:32:29.132Z,96984.34
2018-01-28T05:34:56.664Z,96989.19
2018-01-28T05:37:24.310Z,96989.19
2018-01-28T05:39:51.857Z,96987.29
2018-01-28T05:42:19.447Z,96980.45
2018-01-28T05:44:47.051Z,96987.48
2018-01-28T05:47:14.608Z,96981.31
2018-01-28T05:49:42.308Z,96982.17
2018-01-28T05:52:09.838Z,96988.34
2018-01-28T05:54:37.403Z,96983.52
2018-01-28T05:57:04.978Z,96991.69
2018-01-28T05:59:32.556Z,96989.60
2018-01-28T06:02:00.228Z,96995.64
2018-01-28T06:04:27.777Z,96999.98
2018-01-28T06:06:55.329Z,96988.41
2018-01-28T06:09:22.933Z,97000.47
2018-01-28T06:11:50.485Z,97002.33
2018-01-28T06:14:18.158Z,97009.49
2018-01-28T06:16:45.720Z,97010.09
2018-01-28T06:19:14.295Z,97010.23
2018-01-28T06:21:41.874Z,97016.06
2018-01-28T06:24:09.478Z,97013.86
2018-01-28T06:26:37.181Z,97016.33
2018-01-28T06:29:04.775Z,97013.48
2018-01-28T06:31:32.439Z,97013.60
2018-01-28T06:33:59.998Z,97017.52
2018-01-28T06:36:27.535Z,97013.77
2018-01-28T06:38:55.094Z,97016.61
2018-01-28T06:41:22.678Z,97021.02
2018-01-28T06:43:50.338Z,97023.62
2018-01-28T06:46:17.893Z,97024.86
2018-01-28T06:48:45.458Z,97000.41
2018-01-28T06:51:13.023Z,97026.27
2018-01-28T06:53:40.579Z,97020.23
2018-01-28T06:56:08.269Z,97009.28
2018-01-28T06:58:35.810Z,97023.72
2018-01-28T07:01:03.496Z,97015.32
2018-01-28T07:03:31.048Z,97018.69
2018-01-28T07:05:58.717Z,97012.45
2018-01-28T07:08:26.328Z,96995.61
2018-01-28T07:10:53.909Z,96995.41
2018-01-28T07:13:21.568Z,96991.55
2018-01-28T07:15:49.125Z,96986.61
2018-01-28T07:18:16.710Z,97003.78
2018-01-28T07:20:44.281Z,97000.28
2018-01-28T07:23:11.833Z,96999.63
2018-01-28T07:25:39.529Z,96999.16
2018-01-28T07:28:07.109Z,96965.01
2018-01-28T07:30:34.826Z,97002.17
2018-01-28T07:33:02.389Z,96997.02
2018-01-28T07:35:29.929Z,96986.97
2018-01-28T07:37:57.489Z,96989.97
2018-01-28T07:40:25.054Z,96987.14
2018-01-28T07:42:52.764Z,96977.87
2018-01-28T07:45:20.324Z,96994.91
2018-01-28T07:47:47.914Z,96987.23
2018-01-28T07:50:15.476Z,96991.88
2018-01-28T07:52:43.102Z,96979.58
2018-01-28T07:55:10.769Z,96961.44
2018-01-28T07:57:38.313Z,96973.22
2018-01-28T08:00:06.664Z,96977.58
2018-01-28T08:02:35.325Z,96978.98
2018-01-28T08:05:06.940Z,96980.89
2018-01-28T08:07:35.335Z,96976.44
2018-01-28T08:10:19.074Z,96977.83
2018-01-28T08:12:50.157Z,96971.16
2018-01-28T08:15:18.712Z,96986.89
2018-01-28T08:17:46.340Z,96994.85
2018-01-28T08:20:14.134Z,96995.55
2018-01-28T08:22:41.955Z,96989.08
2018-01-28T08:25:11.337Z,96992.53
2018-01-28T08:27:54.713Z,96994.12
2018-01-28T08:30:22.382Z,96991.90
2018-01-28T08:32:49.999Z,96986.70
2018-01-28T08:35:17.534Z,97006.81
2018-01-28T08:37:45.228Z,97003.33
2018-01-28T08:40:12.898Z,97009.23
2018-01-28T08:42:40.594Z,97009.31
2018-01-28T08:45:08.168Z,97014.13
2018-01-28T08:47:35.705Z,97002.48
2018-01-28T08:50:03.267Z,97000.52
2018-01-28T08:52:30.826Z,97011.39
2018-01-28T08:54:58.524Z,97007.80
2018-01-28T08:57:26.156Z,97004.83
2018-01-28T08:59:53.793Z,97006.08
2018-01-28T09:02:21.324Z,97006.39
2018-01-28T09:04:48.862Z,96994.16
2018-01-28T09:07:16.571Z,96995.02
2018-01-28T09:09:44.128Z,96988.56
2018-01-28T09:12:11.701Z,96990.32
2018-01-28T09:14:39.236Z,96985.97
2018-01-28T09:17:06.777Z,96986.58
2018-01-28T09:19:34.460Z,96989.66
2018-01-28T09:22:02.027Z,96985.25
2018-01-28T09:24:29.570Z,96986.45
2018-01-28T09:26:57.113Z,96981.19
2018-01-28T09:29:24.673Z,96986.01
2018-01-28T09:31:53.122Z,96990.31
2018-01-28T09:34:21.683Z,96995.52
2018-01-28T09:36:52.227Z,96999.16
2018-01-28T09:39:20.529Z,96997.87
2018-01-28T09:41:50.872Z,96995.48
2018-01-28T09:44:21.501Z,96989.16
2018-01-28T09:46:50.997Z,96993.75
2018-01-28T09:49:23.119Z,96986.76
2018-01-28T09:51:51.538Z,96973.75
2018-01-28T09:54:22.121Z,96986.02
2018-01-28T09:56:50.624Z,96984.68
2018-01-28T09:59:19.145Z,96983.88
2018-01-28T10:01:46.852Z,96981.30
2018-01-28T10:04:15.470Z,96979.45
2018-01-28T10:06:42.982Z,96976.30
2018-01-28T10:09:10.499Z,96972.94
2018-01-28T10:11:38.104Z,96963.14
2018-01-28T10:14:05.836Z,96953.66
2018-01-28T10:16:33.356Z,96948.08
2018-01-28T10:19:01.154Z,96949.56
2018-01-28T10:21:28.731Z,96942.03
2018-01-28T10:23:56.284Z,96944.17
2018-01-28T10:26:23.955Z,96945.45
2018-01-28T10:28:51.670Z,96940.81
2018-01-28T10:31:19.392Z,96942.92
2018-01-28T10:33:46.979Z,96942.50
2018-01-28T10:36:14.493Z,96947.37
2018-01-28T10:38:42.017Z,96945.30
2018-01-28T10:41:09.562Z,96906.70
2018-01-28T10:43:37.230Z,96933.30
2018-01-28T10:46:04.763Z,96921.46
2018-01-28T10:48:32.305Z,96916.92
2018-01-28T10:50:59.868Z,96916.88
2018-01-28T10:53:27.401Z,96909.06
2018-01-28T10:55:55.041Z,96901.13
2018-01-28T10:58:22.582Z,96888.10
2018-01-28T11:00:50.276Z,96885.93
2018-01-28T11:03:17.841Z,96876.37
2018-01-28T11:05:45.402Z,96868.77
2018-01-28T11:08:12.998Z,96869.28
2018-01-28T11:10:40.520Z,96874.44
2018-01-28T11:13:08.201Z,96869.17
2018-01-28T11:15:35.756Z,96865.69
2018-01-28T11:18:03.321Z,96862.03
2018-01-28T11:20:31.082Z,96854.56
2018-01-28T11:22:58.794Z,96846.56
2018-01-28T11:25:26.497Z,96852.34
2018-01-28T11:27:54.056Z,96835.15
2018-01-28T11:30:21.774Z,96847.08
2018-01-28T11:32:49.377Z,96844.81
2018-01-28T11:35:17.444Z,96843.30
2018-01-28T11:37:45.729Z,96839.76
2018-01-28T11:40:13.546Z,96839.27
2018-01-28T11:42:41.458Z,96827.73
2018-01-28T11:45:09.155Z,96828.20
2018-01-28T11:47:37.592Z,96831.31
2018-01-28T11:50:05.113Z,96831.36
2018-01-28T11:52:32.677Z,96830.30
2018-01-28T11:55:00.632Z,96831.50
2018-01-28T11:57:28.381Z,96829.43
2018-01-28T11:59:56.794Z,96822.04
2018-01-28T12:02:24.595Z,96812.92
2018-01-28T12:04:52.145Z,96801.06
2018-01-28T12:07:19.896Z,96795.53
2018-01-28T12:09:47.433Z,96795.09
2018-01-28T12:12:15.413Z,96797.05
2018-01-28T12:14:42.942Z,96797.78
2018-01-28T12:17:10.477Z,96797.28
2018-01-28T12:19:38.357Z,96782.72
2018-01-28T12:22:05.943Z,96790.67
2018-01-28T12:24:33.492Z,96783.66
2018-01-28T12:27:01.062Z,96787.97
2018-01-28T12:29:28.730Z,96782.77
2018-01-28T12:31:56.525Z,96778.63
2018-01-28T12:34:24.165Z,96782.38
2018-01-28T12:36:51.771Z,96780.48
2018-01-28T12:39:19.318Z,96780.27
2018-01-28T12:41:47.282Z,96780.00
2018-01-28T12:44:15.912Z,96773.94
2018-01-28T12:46:43.480Z,96774.97
2018-01-28T12:49:16.744Z,96774.24
2018-01-28T12:51:44.456Z,96774.33
2018-01-28T12:54:12.291Z,96764.64
2018-01-28T12:56:39.893Z,96757.81
2018-01-28T12:59:07.516Z,96765.23
2018-01-28T13:01:35.216Z,96753.16
2018-01-28T13:04:03.153Z,96758.59
2018-01-28T13:06:30.662Z,96754.33
2018-01-28T13:08:58.222Z,96747.58
2018-01-28T13:11:25.756Z,96752.14
2018-01-28T13:13:53.436Z,96756.40
2018-01-28T13:16:20.964Z,96757.38
2018-01-28T13:18:48.599Z,96759.26
2018-01-28T13:21:16.150Z,96757.97
2018-01-28T13:23:43.688Z,96762.73
2018-01-28T13:26:11.383Z,96759.41
2018-01-28T13:28:38.899Z,96761.95
2018-01-28T13:31:06.549Z,96762.41
2018-01-28T13:33:35.344Z,96754.13
2018-01-28T13:36:03.039Z,96756.69
2018-01-28T13:38:30.896Z,96760.63
2018-01-28T13:40:58.619Z,96755.94
2018-01-28T13:43:26.420Z,96752.00
2018-01-28T13:45:53.971Z,96748.35
2018-01-28T13:48:21.551Z,96745.23
2018-01-28T13:50:49.132Z,96734.64
2018-01-28T13:53:16.921Z,96736.67
2018-01-28T13:55:44.635Z,96730.96
2018-01-28T13:58:12.310Z,96726.45
2018-01-28T14:00:39.999Z,96727.98
2018-01-28T14:03:07.573Z,96725.12
2018-01-28T14:05:35.141Z,96720.58
2018-01-28T14:08:02.722Z,96725.81
2018-01-28T14:10:30.264Z,96724.84
2018-01-28T14:12:57.914Z,96722.05
2018-01-28T14:15:25.437Z,96722.98
2018-01-28T14:17:52.949Z,96715.87
2018-01-28T14:20:20.486Z,96712.34
2018-01-28T14:22:48.029Z,96719.09
2018-01-28T14:25:15.580Z,96720.77
2018-01-28T14:27:43.109Z,96712.05
2018-01-28T14:30:10.770Z,96721.47
2018-01-28T14:32:38.366Z,96724.63
2018-01-28T14:35:05.941Z,96727.99
2018-01-28T14:37:33.595Z,96725.91
2018-01-28T14:40:01.240Z,96716.52
2018-01-28T14:42:29.589Z,96710.49
2018-01-28T14:44:57.112Z,96716.34
2018-01-28T14:47:25.676Z,96718.05
2018-01-28T14:49:53.733Z,96727.90
2018-01-28T14:52:21.393Z,96731.77
2018-01-28T14:54:49.664Z,96726.20
2018-01-28T14:57:17.224Z,96730.55
2018-01-28T14:59:44.912Z,96732.95
2018-01-28T15:02:12.470Z,96736.80
2018-01-28T15:04:40.004Z,96736.67
2018-01-28T15:07:07.667Z,96731.64
2018-01-28T15:09:36.469Z,96730.15
2018-01-28T15:12:05.180Z,96730.48
2018-01-28T15:14:32.860Z,96732.30
2018-01-28T15:17:00.448Z,96728.38
2018-01-28T15:19:28.330Z,96724.42
2018-01-28T15:21:55.903Z,96726.73
2018-01-28T15:24:23.536Z,96734.38
2018-01-28T15:26:51.398Z,96741.42
2018-01-28T15:29:18.967Z,96739.09
2018-01-28T15:31:46.520Z,96741.59
2018-01-28T15:34:14.067Z,96741.74
2018-01-28T15:36:41.770Z,96743.36
2018-01-28T15:39:09.305Z,96739.33
2018-01-28T15:41:36.826Z,96739.80
2018-01-28T15:44:04.366Z,96763.63
2018-01-28T15:46:31.892Z,96753.80
2018-01-28T15:48:59.584Z,96761.04
2018-01-28T15:51:27.118Z,96763.08
2018-01-28T15:53:54.669Z,96763.64
2018-01-28T15:56:22.202Z,96771.45
2018-01-28T15:58:49.775Z,96765.48
2018-01-28T16:01:17.726Z,96770.89
2018-01-28T16:03:45.416Z,96753.03
2018-01-28T16:06:13.133Z,96753.34
2018-01-28T16:08:40.661Z,96763.13
2018-01-28T16:11:08.243Z,96767.97
2018-01-28T16:13:35.973Z,96766.10
2018-01-28T16:16:03.573Z,96747.95
2018-01-28T16:18:31.097Z,96769.72
2018-01-28T16:20:58.750Z,96775.64
2018-01-28T16:23:26.386Z,96783.19
2018-01-28T16:25:54.663Z,96778.75
2018-01-28T16:28:22.333Z,96776.01
2018-01-28T16:30:50.081Z,96764.58
2018-01-28T16:33:17.843Z,96769.33
2018-01-28T16:35:45.430Z,96775.67
2018-01-28T16:38:13.133Z,96774.70
2018-01-28T16:40:40.781Z,96771.59
2018-01-28T16:43:10.067Z,96780.15
2018-01-28T16:45:37.630Z,96778.94
2018-01-28T16:48:05.186Z,96776.84
2018-01-28T16:50:33.017Z,96785.37
2018-01-28T16:53:00.670Z,96783.37
2018-01-28T16:55:29.960Z,96794.14
2018-01-28T16:57:57.941Z,96793.52
2018-01-28T17:00:26.148Z,96790.09
2018-01-28T17:02:53.798Z,96786.92
2018-01-28T17:05:21.368Z,96791.53
2018-01-28T17:07:48.949Z,96790.72
2018-01-28T17:10:16.541Z,96786.92
2018-01-28T17:12:44.236Z,96787.66
2018-01-28T17:15:12.168Z,96785.23
2018-01-28T17:17:39.722Z,96787.14
2018-01-28T17:20:07.277Z,96789.95
2018-01-28T17:22:34.809Z,96796.78
2018-01-28T17:25:02.532Z,96796.08
2018-01-28T17:27:30.057Z,96806.23
2018-01-28T17:29:57.606Z,96806.59
2018-01-28T17:32:25.141Z,96797.19
2018-01-28T17:34:52.693Z,96795.05
2018-01-28T17:37:20.368Z,96799.55
2018-01-28T17:39:47.889Z,96796.08
2018-01-28T17:42:15.418Z,96807.05
2018-01-28T17:44:42.984Z,96800.30
2018-01-28T17:47:10.490Z,96802.33
2018-01-28T17:49:38.164Z,96812.98
2018-01-28T17:52:05.713Z,96820.30
2018-01-28T17:54:33.239Z,96826.97
2018-01-28T17:57:00.763Z,96826.26
2018-01-28T17:59:28.895Z,96823.11
2018-01-28T18:01:56.409Z,96820.86
2018-01-28T18:04:23.952Z,96822.91
2018-01-28T18:06:51.605Z,96830.98
2018-01-28T18:09:20.090Z,96835.73
2018-01-28T18:11:47.628Z,96838.91
2018-01-28T18:14:15.146Z,96832.33
2018-01-28T18:16:42.670Z,96804.45
2018-01-28T18:19:10.342Z,96806.34
2018-01-28T18:21:37.951Z,96805.55
2018-01-28T18:24:05.473Z,96810.87
2018-01-28T18:26:32.994Z,96805.33
2018-01-28T18:29:00.562Z,96801.03
2018-01-28T18:31:28.085Z,96811.35
2018-01-28T18:33:55.612Z,96814.06
2018-01-28T18:36:24.153Z,96816.45
2018-01-28T18:38:51.693Z,96825.45
2018-01-28T18:41:19.608Z,96824.39
2018-01-28T18:43:47.125Z,96830.39
2018-01-28T18:46:14.648Z,96832.26
2018-01-28T18:48:42.403Z,96827.27
2018-01-28T18:51:09.913Z,96827.42
2018-01-28T18:53:37.498Z,96814.94
2018-01-28T18:56:05.029Z,96815.81
2018-01-28T18:58:34.273Z,96819.17
2018-01-28T19:01:02.026Z,96822.14
2018-01-28T19:03:29.765Z,96821.50
2018-01-28T19:06:00.904Z,96824.70
2018-01-28T19:08:28.848Z,96821.55
2018-01-28T19:10:57.411Z,96820.36
2018-01-28T19:13:25.284Z,96809.02
2018-01-28T19:15:53.756Z,96806.45
2018-01-28T19:18:21.267Z,96815.22
2018-01-28T19:20:48.782Z,96816.67
2018-01-28T19:23:16.317Z,96813.79
2018-01-28T19:25:43.993Z,96821.98
2018-01-28T19:28:11.980Z,96827.62
2018-01-28T19:30:39.668Z,96825.72
2018-01-28T19:33:07.209Z,96825.38
2018-01-28T19:35:35.647Z,96827.36
2018-01-28T19:38:04.193Z,96830.78
2018-01-28T19:40:31.705Z,96824.34
2018-01-28T19:42:59.599Z,96819.62
2018-01-28T19:45:27.264Z,96820.59
2018-01-28T19:47:54.782Z,96819.89
2018-01-28T19:50:22.294Z,96821.80
2018-01-28T19:52:49.809Z,96818.47
2018-01-28T19:55:17.530Z,96817.09
2018-01-28T19:57:45.674Z,96816.58
2018-01-28T20:00:13.354Z,96820.09
2018-01-28T20:02:40.883Z,96802.50
2018-01-28T20:05:08.410Z,96801.50
2018-01-28T20:07:35.943Z,96799.44
2018-01-28T20:10:03.607Z,96795.93
2018-01-28T20:12:32.134Z,96789.12
2018-01-28T20:15:00.516Z,96785.52
2018-01-28T20:17:28.045Z,96788.42
2018-01-28T20:19:55.557Z,96791.91
2018-01-28T20:22:23.077Z,96788.47
2018-01-28T20:24:54.765Z,96791.13
2018-01-28T20:27:22.330Z,96783.34
2018-01-28T20:29:49.861Z,96791.76
2018-01-28T20:32:17.378Z,96796.31
2018-01-28T20:34:44.910Z,96792.34
2018-01-28T20:37:12.567Z,96806.45
2018-01-28T20:39:40.092Z,96816.77
2018-01-28T20:42:07.588Z,96817.59
2018-01-28T20:44:36.191Z,96814.78
2018-01-28T20:47:03.837Z,96818.97
2018-01-28T20:49:31.504Z,96812.91
2018-01-28T20:51:59.031Z,96813.16
2018-01-28T20:54:26.654Z,96808.31
2018-01-28T20:56:54.192Z,96807.45
2018-01-28T20:59:22.245Z,96793.98
2018-01-28T21:01:49.761Z,96802.19
2018-01-28T21:04:17.305Z,96795.10
2018-01-28T21:06:44.972Z,96796.48
2018-01-28T21:09:12.540Z,96802.77
2018-01-28T21:11:40.033Z,96820.72
2018-01-28T21:14:07.844Z,96823.22
2018-01-28T21:16:35.364Z,96827.47
2018-01-28T21:19:03.012Z,96830.94
2018-01-28T21:21:30.550Z,96828.69
2018-01-28T21:23:58.137Z,96816.19
2018-01-28T21:26:25.653Z,96818.28
2018-01-28T21:28:53.167Z,96814.19
2018-01-28T21:31:21.522Z,96808.75
2018-01-28T21:33:49.042Z,96800.83
2018-01-28T21:36:16.686Z,96796.84
2018-01-28T21:38:44.225Z,96787.73
2018-01-28T21:41:11.767Z,96788.19
2018-01-28T21:43:39.278Z,96787.73
2018-01-28T21:46:06.785Z,96792.36
2018-01-28T21:48:34.429Z,96796.28
2018-01-28T21:51:01.965Z,96788.08
2018-01-28T21:53:29.485Z,96790.73
2018-01-28T21:55:57.004Z,96792.15
2018-01-28T21:58:24.536Z,96802.81
2018-01-28T22:00:52.228Z,96801.19
2018-01-28T22:03:19.768Z,96802.81
2018-01-28T22:05:47.284Z,96807.08
2018-01-28T22:08:14.827Z,96807.44
2018-01-28T22:10:42.364Z,96802.08
2018-01-28T22:13:10.114Z,96801.91
2018-01-28T22:15:37.616Z,96800.64
2018-01-28T22:18:05.133Z,96798.34
2018-01-28T22:20:32.665Z,96796.55
2018-01-28T22:23:00.186Z,96792.52
2018-01-28T22:25:27.846Z,96786.57
2018-01-28T22:27:55.380Z,96788.49
2018-01-28T22:30:23.848Z,96784.97
2018-01-28T22:32:51.371Z,96786.41
2018-01-28T22:35:18.880Z,96779.52
2018-01-28T22:37:46.441Z,96774.97
2018-01-28T22:40:13.986Z,96773.91
2018-01-28T22:42:41.693Z,96768.72
2018-01-28T22:45:09.228Z,96771.86
2018-01-28T22:47:36.748Z,96773.84
2018-01-28T22:50:04.270Z,96764.52
2018-01-28T22:52:31.785Z,96756.53
2018-01-28T22:54:59.438Z,96777.61
2018-01-28T22:57:26.940Z,96775.06
2018-01-28T22:59:54.472Z,96765.56
2018-01-28T23:02:22.004Z,96769.65
2018-01-28T23:04:49.538Z,96772.65
2018-01-28T23:07:17.213Z,96766.02
2018-01-28T23:09:44.732Z,96764.91
2018-01-28T23:12:12.266Z,96763.58
2018-01-28T23:14:39.785Z,96764.03
2018-01-28T23:17:07.307Z,96768.66
2018-01-28T23:19:34.960Z,96773.59
2018-01-28T23:22:02.497Z,96774.59
2018-01-28T23:24:30.060Z,96771.23
2018-01-28T23:26:57.584Z,96767.50
2018-01-28T23:29:25.109Z,96770.25
2018-01-28T23:31:52.701Z,96760.63
2018-01-28T23:34:20.215Z,96761.27
2018-01-28T23:36:47.948Z,96771.16
2018-01-28T23:39:15.568Z,96765.48
2018-01-28T23:41:43.421Z,96763.34
2018-01-28T23:44:10.941Z,96756.42
2018-01-28T23:46:38.444Z,96743.02
2018-01-28T23:49:06.127Z,96748.89
2018-01-28T23:51:33.658Z,96745.67
2018-01-28T23:54:01.192Z,96745.72
2018-01-28T23:56:28.716Z,96742.80
2018-01-28T23:58:56.233Z,96746.47
